Time;durP1;ratioP1;P1;durP2;ratioP2;P2;SDS_P1;SDS_P2;PMS_P1;PMS_P2;Temp;Humidity;BMP_temperature;BMP_pressure;BME280_temperature;BME280_humidity;BME280_pressure;Samples;Min_cycle;Max_cycle;Signal;HPM_P1;HPM_P2
2022/04/23 00:07:31;;;;;;;1999.90;999.90;;;;;;;9.42;65.67;100678.00;15750386;28;20044;-65
2022/04/23 00:15:06;;;;;;;;;;;;;;;9.34;65.50;100684.38;15737025;28;20071;-63
2022/04/23 00:22:40;;;;;;;1999.90;999.90;;;;;;;9.10;66.21;100690.41;15803681;28;20351;-63
2022/04/23 00:30:13;;;;;;;1999.90;999.90;;;;;;;8.95;66.35;100677.75;15744138;28;20480;-63
2022/04/23 00:37:48;;;;;;;1999.90;999.90;;;;;;;8.92;66.50;100675.63;15726177;28;20312;-63
2022/04/23 00:45:21;;;;;;;1999.90;999.90;;;;;;;8.80;66.49;100678.19;15746471;28;20136;-61
2022/04/23 00:52:59;;;;;;;1999.90;999.90;;;;;;;8.77;66.88;100681.63;15742723;28;20106;-63
2022/04/23 01:00:34;;;;;;;1999.90;999.90;;;;;;;8.67;66.69;100671.63;15729609;28;20045;-63
2022/04/23 01:08:08;;;;;;;1999.90;999.90;;;;;;;8.78;66.41;100674.94;15725960;28;20063;-63
2022/04/23 01:15:43;;;;;;;1999.90;999.90;;;;;;;8.54;67.19;100676.13;15802971;28;20480;-63
2022/04/23 01:23:17;;;;;;;1999.90;999.90;;;;;;;8.58;66.91;100679.09;15828751;28;20431;-63
2022/04/23 01:30:50;;;;;;;1999.90;999.90;;;;;;;8.53;66.86;100671.69;15770267;28;20072;-63
2022/04/23 01:38:24;;;;;;;1999.90;999.90;;;;;;;8.35;67.27;100672.78;15804421;28;20036;-62
2022/04/23 01:45:56;;;;;;;;;;;;;;;8.42;67.08;100675.91;15812129;28;20067;-63
2022/04/23 01:53:30;;;;;;;1999.90;999.90;;;;;;;8.20;68.04;100675.91;15869816;28;19920;-63
2022/04/23 02:01:02;;;;;;;;;;;;;;;8.16;67.72;100674.91;15827814;28;20071;-63
2022/04/23 02:08:36;;;;;;;1999.90;999.90;;;;;;;8.06;67.85;100681.56;15795785;28;19920;-63
2022/04/23 02:16:09;;;;;;;1999.90;999.90;;;;;;;7.95;68.52;100680.19;15773283;28;20068;-63
2022/04/23 02:23:43;;;;;;;1999.90;999.90;;;;;;;8.04;68.26;100690.22;15715817;28;20052;-62
2022/04/23 02:31:15;;;;;;;1999.90;999.90;;;;;;;7.87;67.90;100684.53;15713301;28;20044;-63
2022/04/23 02:38:51;;;;;;;1999.90;999.90;;;;;;;7.80;68.18;100678.59;15752107;28;20090;-63
2022/04/23 02:46:24;;;;;;;1999.90;999.90;;;;;;;7.73;67.78;100686.56;15795952;28;20048;-63
2022/04/23 02:53:57;;;;;;;1999.90;999.90;;;;;;;7.83;67.11;100691.88;15739121;28;20517;-63
2022/04/23 03:01:29;;;;;;;1999.90;999.90;;;;;;;7.69;67.44;100688.31;15730449;28;20417;-61
2022/04/23 03:09:04;;;;;;;1999.90;999.90;;;;;;;7.90;67.02;100694.19;15769290;28;20040;-61
2022/04/23 03:16:36;;;;;;;1999.90;999.90;;;;;;;7.50;67.59;100694.00;15810379;28;20040;-61
2022/04/23 03:24:09;;;;;;;1999.90;999.90;;;;;;;7.70;66.60;100682.44;15809539;28;20040;-61
2022/04/23 03:31:41;;;;;;;1999.90;999.90;;;;;;;7.55;67.40;100702.25;15809074;28;20048;-62
2022/04/23 03:39:15;;;;;;;1999.90;999.90;;;;;;;7.45;67.72;100694.97;15808979;28;20097;-62
2022/04/23 03:46:48;;;;;;;1999.90;999.90;;;;;;;7.42;67.80;100706.69;15755890;28;20413;-64
2022/04/23 03:54:21;;;;;;;1999.90;999.90;;;;;;;7.40;68.16;100700.66;15745019;28;20421;-64
2022/04/23 04:01:53;;;;;;;1999.90;999.90;;;;;;;7.31;67.87;100701.69;15743078;28;20429;-63
2022/04/23 04:09:27;;;;;;;1999.90;999.90;;;;;;;7.08;68.46;100712.69;15724780;28;20045;-63
2022/04/23 04:17:00;;;;;;;1999.90;999.90;;;;;;;7.02;68.71;100708.41;15734675;28;20500;-61
2022/04/23 04:24:34;;;;;;;1999.90;999.90;;;;;;;7.09;68.54;100706.03;15750173;28;20044;-62
2022/04/23 04:32:07;;;;;;;1999.90;999.90;;;;;;;7.26;67.98;100721.22;15776159;28;20071;-62
2022/04/23 04:39:42;;;;;;;1999.90;999.90;;;;;;;7.59;67.53;100711.56;15724003;28;20052;-60
2022/04/23 04:47:16;;;;;;;1999.90;999.90;;;;;;;7.57;67.18;100715.81;15722748;28;20072;-61
2022/04/23 04:54:55;;;;;;;1999.90;999.90;;;;;;;7.84;66.81;100726.84;15798666;28;20044;-61
2022/04/23 05:02:27;;;;;;;;;;;;;;;8.37;65.64;100726.09;15786253;28;20051;-62
2022/04/23 05:10:02;;;;;;;1999.90;999.90;;;;;;;8.66;64.76;100733.94;15786266;28;19920;-61
2022/04/23 05:17:38;;;;;;;1999.90;999.90;;;;;;;9.29;63.14;100738.28;15803528;28;20508;-62
2022/04/23 05:25:14;;;;;;;1999.90;999.90;;;;;;;9.76;62.07;100738.50;15761199;28;20090;-62
2022/04/23 05:32:46;;;;;;;;;;;;;;;10.22;60.61;100746.25;15724478;28;20052;-62
2022/04/23 05:40:19;;;;;;;1999.90;999.90;;;;;;;10.91;59.01;100746.03;15746041;28;19920;-61
2022/04/23 05:47:53;;;;;;;1999.90;999.90;;;;;;;11.52;56.79;100745.72;15733198;28;20057;-62
2022/04/23 05:55:30;;;;;;;1999.90;999.90;;;;;;;12.07;55.83;100753.06;15733632;28;20044;-62
2022/04/23 06:03:03;;;;;;;1999.90;999.90;;;;;;;13.01;53.13;100748.44;15753931;28;20048;-62
2022/04/23 06:10:37;;;;;;;1999.90;999.90;;;;;;;13.12;52.00;100748.81;15736156;28;20044;-62
2022/04/23 06:18:09;;;;;;;1999.90;999.90;;;;;;;13.35;51.02;100754.81;15736257;28;20041;-62
2022/04/23 06:25:43;;;;;;;1999.90;999.90;;;;;;;14.77;49.19;100752.59;15719832;28;20040;-62
2022/04/23 06:33:16;;;;;;;1999.90;999.90;;;;;;;15.54;47.64;100754.97;15781236;28;20040;-62
2022/04/23 06:40:49;;;;;;;1999.90;999.90;;;;;;;15.79;45.80;100761.19;15802900;28;20033;-63
2022/04/23 06:48:22;;;;;;;1999.90;999.90;;;;;;;15.71;46.20;100757.38;15758549;28;20040;-62
2022/04/23 06:55:55;;;;;;;1999.90;999.90;;;;;;;16.35;44.51;100757.94;15733853;28;20143;-62
2022/04/23 07:03:28;;;;;;;1999.90;999.90;;;;;;;15.81;45.33;100756.81;15783940;28;20047;-62
2022/04/23 07:11:02;;;;;;;1999.90;999.90;;;;;;;16.75;42.50;100754.75;15748244;22;20426;-60
2022/04/23 07:18:35;;;;;;;1999.90;999.90;;;;;;;17.88;41.14;100753.00;15676911;28;20056;-60
2022/04/23 07:26:14;;;;;;;1999.90;999.90;;;;;;;16.82;39.72;100752.06;15678046;28;20188;-60
2022/04/23 07:41:38;;;;;;;1999.90;999.90;;;;;;;17.40;38.04;100748.22;15673935;28;20045;-59
2022/04/23 07:49:10;;;;;;;1999.90;999.90;;;;;;;17.42;37.95;100751.50;15675086;28;20045;-59
2022/04/23 07:56:44;;;;;;;1999.90;999.90;;;;;;;18.27;36.91;100751.91;15675509;28;20049;-58
2022/04/23 08:04:16;;;;;;;1999.90;999.90;;;;;;;18.69;36.98;100749.63;15674748;28;20049;-59
2022/04/23 08:11:50;;;;;;;1999.90;999.90;;;;;;;19.21;37.53;100742.03;15673685;28;20414;-60
2022/04/23 08:19:23;;;;;;;1999.90;999.90;;;;;;;19.35;35.97;100743.34;15673024;28;20037;-58
2022/04/23 08:26:56;;;;;;;1999.90;999.90;;;;;;;20.16;35.36;100740.25;15673204;28;20049;-59
2022/04/23 08:34:29;;;;;;;1999.90;999.90;;;;;;;20.75;34.75;100743.72;15672141;28;20133;-59
2022/04/23 08:42:05;;;;;;;1999.90;999.90;;;;;;;19.71;36.53;100731.09;15691286;28;20041;-59
2022/04/23 08:49:41;;;;;;;1999.90;999.90;;;;;;;21.10;34.60;100733.63;15686410;28;20110;-60
2022/04/23 08:57:14;;;;;;;1999.90;999.90;;;;;;;20.21;35.33;100722.84;15691745;28;20045;-58
2022/04/23 09:04:50;;;;;;;1999.90;999.90;;;;;;;19.93;35.13;100726.38;15671873;28;20080;-59
2022/04/23 09:12:26;;;;;;;1999.90;999.90;;;;;;;21.22;33.90;100730.38;15681803;28;20041;-60
2022/04/23 09:27:51;;;;;;;1999.90;999.90;;;;;;;20.88;32.83;100708.06;15727876;28;20051;-60
2022/04/23 09:35:24;;;;;;;1999.90;999.90;;;;;;;20.97;32.99;100702.00;15745290;28;20147;-61
2022/04/23 09:43:02;;;;;;;;;;;;;;;21.90;31.96;100686.50;15744197;28;20138;-60
2022/04/23 09:50:37;;;;;;;1999.90;999.90;;;;;;;22.69;31.23;100678.38;15701790;28;19931;-58
2022/04/23 09:58:11;;;;;;;1999.90;999.90;;;;;;;22.08;33.65;100680.75;15682425;28;20049;-56
2022/04/23 10:05:47;;;;;;;1999.90;999.90;;;;;;;21.77;31.89;100670.28;15683013;28;20087;-59
2022/04/23 10:13:22;;;;;;;1999.90;999.90;;;;;;;22.26;32.20;100655.09;15683098;28;20112;-60
2022/04/23 10:21:02;;;;;;;1999.90;999.90;;;;;;;22.41;33.50;100658.69;15681434;28;20123;-61
2022/04/23 10:28:43;;;;;;;1999.90;999.90;;;;;;;24.51;30.28;100659.41;15679686;28;20057;-57
2022/04/23 10:36:16;;;;;;;1999.90;999.90;;;;;;;23.27;29.10;100650.28;15679957;28;20083;-60
2022/04/23 10:43:51;;;;;;;;;;;;;;;22.55;30.12;100641.50;15679909;28;20308;-60
2022/04/23 10:51:23;;;;;;;1999.90;999.90;;;;;;;22.14;30.43;100635.69;15726610;28;19966;-59
2022/04/23 10:58:57;;;;;;;1999.90;999.90;;;;;;;22.24;29.64;100626.28;15741602;28;20131;-57
2022/04/23 11:14:45;;;;;;;1999.90;999.90;;;;;;;24.17;27.52;100617.47;15738233;28;20044;-57
2022/04/23 11:22:18;;;;;;;1999.90;999.90;;;;;;;24.09;27.20;100607.44;15739251;28;20614;-60
2022/04/23 11:29:52;;;;;;;;;;;;;;;23.27;28.46;100599.88;15739677;28;20653;-60
2022/04/23 11:37:32;;;;;;;1999.90;999.90;;;;;;;23.50;27.83;100587.00;15736604;28;19954;-59
2022/04/23 11:45:06;;;;;;;1999.90;999.90;;;;;;;23.22;28.50;100593.81;15738948;28;20402;-61
2022/04/23 11:52:39;;;;;;;1999.90;999.90;;;;;;;22.01;30.07;100583.38;15679056;28;20068;-59
2022/04/23 12:00:20;;;;;;;1999.90;999.90;;;;;;;20.32;30.59;100570.72;15674804;28;20128;-59
2022/04/23 12:07:52;;;;;;;1999.90;999.90;;;;;;;20.95;29.95;100549.25;15673398;28;20114;-60
2022/04/23 12:15:26;;;;;;;1999.90;999.90;;;;;;;21.95;29.46;100545.25;15674762;28;20148;-60
2022/04/23 12:22:59;;;;;;;1999.90;999.90;;;;;;;20.63;30.05;100548.47;15674587;28;20136;-60
2022/04/23 12:46:15;;;;;;;1999.90;999.90;;;;;;;26.74;22.91;100524.69;15701559;28;19921;-60
2022/04/23 12:53:47;;;;;;;1999.90;999.90;;;;;;;27.21;23.49;100524.28;15733366;28;20413;-58
2022/04/23 13:01:21;;;;;;;1999.90;999.90;;;;;;;26.69;23.02;100507.28;15685984;28;20053;-56
2022/04/23 13:08:56;;;;;;;1999.90;999.90;;;;;;;25.82;23.59;100496.28;15701373;22;20058;-60
2022/04/23 13:16:31;;;;;;;1999.90;999.90;;;;;;;27.82;21.30;100493.84;15796918;28;20086;-59
2022/04/23 13:24:04;;;;;;;1999.90;999.90;;;;;;;26.95;21.87;100486.09;15848847;28;20050;-61
2022/04/23 13:31:39;;;;;;;1999.90;999.90;;;;;;;27.47;21.86;100469.91;15851477;28;20464;-59
2022/04/23 13:39:11;;;;;;;1999.90;999.90;;;;;;;27.19;21.03;100460.91;15814307;28;20037;-59
2022/04/23 13:46:45;;;;;;;1999.90;999.90;;;;;;;22.95;25.79;100442.91;15796921;28;20071;-61
2022/04/23 13:54:18;;;;;;;1999.90;999.90;;;;;;;20.92;28.57;100430.13;15797061;28;20548;-59
2022/04/23 14:17:36;;;;;;;1999.90;999.90;;;;;;;20.90;29.69;100413.53;15834198;28;20123;-59
2022/04/23 14:25:08;;;;;;;1999.90;999.90;;;;;;;20.41;29.94;100391.78;15854578;28;20461;-60
2022/04/23 14:32:42;;;;;;;1999.90;999.90;;;;;;;20.57;29.92;100388.53;15804132;28;20038;-61
2022/04/23 14:40:14;;;;;;;1999.90;999.90;;;;;;;20.39;31.24;100383.69;15805559;28;20247;-58
2022/04/23 14:47:50;;;;;;;1999.90;999.90;;;;;;;20.03;30.83;100380.09;15868473;28;20061;-60
2022/04/23 14:55:29;;;;;;;1999.90;999.90;;;;;;;19.72;30.91;100364.75;15873479;28;20059;-60
2022/04/23 15:03:05;;;;;;;1999.90;999.90;;;;;;;19.88;30.76;100362.28;15868920;28;20411;-60
2022/04/23 15:10:37;;;;;;;1999.90;999.90;;;;;;;19.68;30.98;100363.09;15867764;28;20460;-59
2022/04/23 15:18:11;;;;;;;1999.90;999.90;;;;;;;19.73;31.05;100354.22;15835856;28;20483;-58
2022/04/23 15:25:43;;;;;;;1999.90;999.90;;;;;;;19.63;31.01;100353.00;15804016;28;20047;-58
2022/04/23 15:33:17;;;;;;;1999.90;999.90;;;;;;;19.76;32.17;100356.25;15812254;28;20062;-56
2022/04/23 15:40:53;;;;;;;1999.90;999.90;;;;;;;19.63;31.63;100343.72;15838446;27;20039;-59
2022/04/23 15:48:30;;;;;;;1999.90;999.90;;;;;;;19.03;32.03;100346.00;15833243;27;20437;-60
2022/04/23 15:56:06;;;;;;;1999.90;999.90;;;;;;;19.50;31.92;100343.28;15859164;28;20044;-59
2022/04/23 16:03:40;;;;;;;1999.90;999.90;;;;;;;19.32;31.58;100349.69;15805286;28;20105;-56
2022/04/23 16:11:12;;;;;;;1999.90;999.90;;;;;;;19.06;32.35;100352.84;15804947;28;20042;-62
2022/04/23 16:18:46;;;;;;;1999.90;999.90;;;;;;;19.11;32.71;100344.00;15859506;28;20054;-62
2022/04/23 16:26:23;;;;;;;1999.90;999.90;;;;;;;19.27;32.59;100338.78;15865317;28;20052;-60
2022/04/23 16:33:57;;;;;;;1999.90;999.90;;;;;;;18.65;32.95;100338.16;15868417;28;20059;-55
2022/04/23 16:49:21;;;;;;;1999.90;999.90;;;;;;;18.40;34.06;100333.19;15841899;28;20047;-58
2022/04/23 16:56:53;;;;;;;1999.90;999.90;;;;;;;18.34;34.22;100331.97;15804379;28;20044;-59
2022/04/23 17:04:28;;;;;;;1999.90;999.90;;;;;;;18.84;34.30;100329.38;15802785;28;20135;-58
2022/04/23 17:12:01;;;;;;;1999.90;999.90;;;;;;;18.58;34.04;100330.47;15800277;28;20039;-59
2022/04/23 17:19:36;;;;;;;1999.90;999.90;;;;;;;18.35;33.68;100327.13;15799506;28;20055;-57
2022/04/23 17:27:09;;;;;;;1999.90;999.90;;;;;;;18.52;34.35;100331.22;15799537;28;20562;-58
2022/04/23 17:34:44;;;;;;;1999.90;999.90;;;;;;;18.32;34.70;100325.88;15785850;28;20470;-59
2022/04/23 17:42:20;;;;;;;1999.90;999.90;;;;;;;17.97;35.39;100325.66;15821161;28;20305;-57
2022/04/23 17:49:54;;;;;;;1999.90;999.90;;;;;;;18.04;35.71;100329.34;15870353;28;20063;-58
2022/04/23 17:57:27;;;;;;;1999.90;999.90;;;;;;;17.59;36.60;100330.56;15845928;28;20104;-58
2022/04/23 18:12:56;;;;;;;1999.90;999.90;;;;;;;17.24;37.27;100333.88;15868068;27;20492;-59
2022/04/23 18:20:31;;;;;;;1999.90;999.90;;;;;;;17.12;37.60;100318.06;15806452;28;20124;-59
2022/04/23 18:28:05;;;;;;;1999.90;999.90;;;;;;;16.87;37.59;100333.88;15804795;28;20044;-58
2022/04/23 18:35:38;;;;;;;1999.90;999.90;;;;;;;16.80;37.87;100331.81;15850940;28;20058;-58
2022/04/23 18:43:11;;;;;;;1999.90;999.90;;;;;;;16.57;38.55;100333.88;15866721;28;20031;-57
2022/04/23 18:50:45;;;;;;;1999.90;999.90;;;;;;;16.50;38.96;100328.16;15866647;28;20047;-58
2022/04/23 18:58:18;;;;;;;1999.90;999.90;;;;;;;16.41;39.04;100334.09;15866300;28;20200;-58
2022/04/23 19:05:52;;;;;;;1999.90;999.90;;;;;;;16.28;39.63;100324.25;15853602;28;20219;-60
2022/04/23 19:13:25;;;;;;;1999.90;999.90;;;;;;;16.17;40.67;100333.38;15862009;22;20496;-62
2022/04/23 19:28:56;;;;;;;1999.90;999.90;;;;;;;15.79;44.33;100337.19;15801388;28;20404;-62
2022/04/23 19:36:34;;;;;;;1999.90;999.90;;;;;;;15.56;44.93;100339.19;15858005;28;20472;-62
2022/04/23 19:44:07;;;;;;;1999.90;999.90;;;;;;;15.38;45.41;100324.81;15850671;28;20096;-62
2022/04/23 19:51:42;;;;;;;1999.90;999.90;;;;;;;15.26;46.18;100331.44;15869194;28;20064;-63
2022/04/23 19:59:16;;;;;;;1999.90;999.90;;;;;;;15.02;46.47;100321.38;15867955;28;20475;-62
2022/04/23 20:06:50;;;;;;;1999.90;999.90;;;;;;;14.75;47.41;100322.44;15848047;28;20139;-63
2022/04/23 20:14:23;;;;;;;1999.90;999.90;;;;;;;14.64;47.72;100327.03;15805289;28;20040;-63
2022/04/23 20:21:57;;;;;;;;;;;;;;;14.41;48.32;100322.13;15805383;28;20381;-63
2022/04/23 20:29:30;;;;;;;1999.90;999.90;;;;;;;14.14;48.83;100323.13;15786256;28;19919;-63
2022/04/23 20:44:54;;;;;;;1999.90;999.90;;;;;;;13.80;49.24;100313.53;15784864;28;20113;-62
2022/04/23 21:00:21;;;;;;;1999.90;999.90;;;;;;;13.77;48.49;100311.47;15803524;28;20191;-59
2022/04/23 21:07:56;;;;;;;1999.90;999.90;;;;;;;13.58;49.35;100303.78;15813340;28;20135;-62
2022/04/23 21:15:32;;;;;;;1999.90;999.90;;;;;;;13.38;49.49;100304.88;15864813;28;20051;-62
2022/04/23 21:23:06;;;;;;;1999.90;999.90;;;;;;;13.20;49.69;100315.63;15864927;28;20426;-61
2022/04/23 21:30:39;;;;;;;;;;;;;;;13.22;49.38;100300.06;15866037;28;20448;-62
2022/04/23 21:38:12;;;;;;;1999.90;999.90;;;;;;;13.09;49.95;100300.50;15864199;28;19920;-62
2022/04/23 21:45:44;;;;;;;;;;;;;;;13.05;49.55;100297.63;15846709;28;20490;-62
2022/04/23 21:53:18;;;;;;;1999.90;999.90;;;;;;;12.82;50.02;100303.00;15863900;28;20036;-62
2022/04/23 22:01:11;;;;;;;1999.90;999.90;;;;;;;12.62;50.63;100296.44;15851459;28;20046;-62
2022/04/23 22:08:45;;;;;;;1999.90;999.90;;;;;;;12.57;50.41;100291.09;15786316;28;20562;-62
2022/04/23 22:16:18;;;;;;;1999.90;999.90;;;;;;;12.59;49.96;100287.94;15832152;28;20621;-62
2022/04/23 22:23:52;;;;;;;1999.90;999.90;;;;;;;12.62;50.30;100278.84;15842357;28;20052;-62
2022/04/23 22:31:25;;;;;;;1999.90;999.90;;;;;;;12.35;50.75;100284.06;15824048;28;20075;-62
2022/04/23 22:57:15;;;;;;;1999.90;999.90;;;;;;;11.93;51.51;100271.63;15837763;28;20145;-62
2022/04/23 23:04:47;;;;;;;;;;;;;;;11.75;52.38;100271.03;15829075;28;20472;-61
2022/04/23 23:12:25;;;;;;;1999.90;999.90;;;;;;;11.85;52.69;100265.81;15847158;28;19931;-62
2022/04/23 23:19:59;;;;;;;1999.90;999.90;;;;;;;11.63;52.69;100260.69;15810208;28;20048;-62
2022/04/23 23:27:34;;;;;;;1999.90;999.90;;;;;;;11.64;52.89;100247.53;15821870;28;20039;-62
2022/04/23 23:35:08;;;;;;;1999.90;999.90;;;;;;;11.57;52.89;100236.97;15872382;28;20070;-61
2022/04/23 23:42:42;;;;;;;1999.90;999.90;;;;;;;11.45;53.56;100237.75;15872152;28;20039;-62
2022/04/23 23:50:21;;;;;;;1999.90;999.90;;;;;;;11.45;53.46;100226.59;15854327;28;20123;-61
2022/04/23 23:57:55;;;;;;;1999.90;999.90;;;;;;;11.19;54.26;100221.38;15872319;28;20059;-61
